createdAt,value
2022-08-20T00:01:21.660Z,92.04
2022-08-20T00:03:53.998Z,91.88
2022-08-20T00:06:27.586Z,92.24
2022-08-20T00:08:59.705Z,92.10
2022-08-20T00:11:33.762Z,92.20
2022-08-20T00:14:07.730Z,91.98
2022-08-20T00:16:40.525Z,91.96
2022-08-20T00:19:12.861Z,92.13
2022-08-20T00:21:45.527Z,92.30
2022-08-20T00:24:19.306Z,92.64
2022-08-20T00:26:52.404Z,92.76
2022-08-20T00:29:25.081Z,92.87
2022-08-20T00:31:57.370Z,93.02
2022-08-20T00:34:30.302Z,93.08
2022-08-20T00:37:02.910Z,93.19
2022-08-20T00:39:35.145Z,93.23
2022-08-20T00:42:09.586Z,92.96
2022-08-20T00:44:48.043Z,93.02
2022-08-20T00:47:20.837Z,93.13
2022-08-20T00:49:52.999Z,92.80
2022-08-20T00:52:25.399Z,92.89
2022-08-20T00:55:02.897Z,93.05
2022-08-20T00:57:59.043Z,93.15
2022-08-20T01:00:41.316Z,93.47
2022-08-20T01:03:17.824Z,93.47
2022-08-20T01:05:52.585Z,93.47
2022-08-20T01:08:26.688Z,93.46
2022-08-20T01:11:10.251Z,93.53
2022-08-20T01:13:44.077Z,93.44
2022-08-20T01:16:22.444Z,93.56
2022-08-20T01:18:57.694Z,93.44
2022-08-20T01:21:33.829Z,93.65
2022-08-20T01:24:14.140Z,93.56
2022-08-20T01:26:47.359Z,93.82
2022-08-20T01:29:23.925Z,93.97
2022-08-20T01:32:01.481Z,93.59
2022-08-20T01:34:34.864Z,93.53
2022-08-20T01:37:07.593Z,93.82
2022-08-20T01:39:40.169Z,93.93
2022-08-20T01:42:19.699Z,93.70
2022-08-20T01:44:52.978Z,94.12
2022-08-20T01:47:31.258Z,94.20
2022-08-20T01:50:19.076Z,94.01
2022-08-20T01:52:58.783Z,93.88
2022-08-20T01:55:31.528Z,94.25
2022-08-20T01:58:04.605Z,94.32
2022-08-20T02:00:37.423Z,94.35
2022-08-20T02:03:09.665Z,94.53
2022-08-20T02:05:42.156Z,94.26
2022-08-20T02:08:14.324Z,94.28
2022-08-20T02:10:48.395Z,94.46
2022-08-20T02:13:20.797Z,93.97
2022-08-20T02:15:52.931Z,94.33
2022-08-20T02:18:25.182Z,94.20
2022-08-20T02:20:57.726Z,94.05
2022-08-20T02:23:29.979Z,94.43
2022-08-20T02:26:02.239Z,94.51
2022-08-20T02:28:34.815Z,94.47
2022-08-20T02:31:09.195Z,94.47
2022-08-20T02:33:41.328Z,94.60
2022-08-20T02:36:34.172Z,94.96
2022-08-20T02:39:08.492Z,95.12
2022-08-20T02:41:41.935Z,95.30
2022-08-20T02:44:14.131Z,95.35
2022-08-20T02:46:46.619Z,95.25
2022-08-20T02:49:20.048Z,95.06
2022-08-20T02:51:52.308Z,95.12
2022-08-20T02:54:24.599Z,95.03
2022-08-20T02:56:56.760Z,95.09
2022-08-20T02:59:28.996Z,95.20
2022-08-20T03:02:02.265Z,95.22
2022-08-20T03:04:34.695Z,95.44
2022-08-20T03:07:07.971Z,95.42
2022-08-20T03:09:43.390Z,95.59
2022-08-20T03:12:15.881Z,95.47
2022-08-20T03:14:48.017Z,95.51
2022-08-20T03:17:20.767Z,95.63
2022-08-20T03:19:53.565Z,95.70
2022-08-20T03:22:25.844Z,95.72
2022-08-20T03:24:58.069Z,95.70
2022-08-20T03:27:32.670Z,95.79
2022-08-20T03:30:12.345Z,95.69
2022-08-20T03:32:44.844Z,95.83
2022-08-20T03:35:19.941Z,95.94
2022-08-20T03:37:52.602Z,96.22
2022-08-20T03:40:30.982Z,96.17
2022-08-20T03:43:03.967Z,96.38
2022-08-20T03:45:37.157Z,96.48
2022-08-20T03:48:14.476Z,96.40
2022-08-20T03:50:49.258Z,96.74
2022-08-20T03:53:22.556Z,97.08
2022-08-20T03:56:02.108Z,96.98
2022-08-20T03:58:36.406Z,97.08
2022-08-20T04:01:44.260Z,97.21
2022-08-20T04:04:01.676Z,97.19
2022-08-20T04:06:33.949Z,97.17
2022-08-20T04:09:06.579Z,97.49
2022-08-20T04:11:39.342Z,97.35
2022-08-20T04:14:13.350Z,97.42
2022-08-20T04:16:49.763Z,97.75
2022-08-20T04:19:23.655Z,97.89
2022-08-20T04:21:55.841Z,97.94
2022-08-20T04:24:32.208Z,98.05
2022-08-20T04:27:05.402Z,98.17
2022-08-20T04:29:38.707Z,98.27
2022-08-20T04:32:12.314Z,98.46
2022-08-20T04:34:44.537Z,98.70
2022-08-20T04:37:25.845Z,99.12
2022-08-20T04:40:15.651Z,98.84
2022-08-20T04:42:47.857Z,99.13
2022-08-20T04:45:26.035Z,99.03
2022-08-20T04:47:58.733Z,99.25
2022-08-20T04:50:34.644Z,99.15
2022-08-20T04:53:09.179Z,99.30
2022-08-20T04:55:43.834Z,99.31
2022-08-20T04:58:22.306Z,99.30
2022-08-20T05:01:01.408Z,99.33
2022-08-20T05:03:35.014Z,99.31
2022-08-20T05:06:10.023Z,99.50
2022-08-20T05:08:42.662Z,99.39
2022-08-20T05:11:34.845Z,99.53
2022-08-20T05:14:09.879Z,99.82
2022-08-20T05:16:42.989Z,99.92
2022-08-20T05:19:15.681Z,99.96
2022-08-20T05:21:48.212Z,99.96
2022-08-20T05:24:21.493Z,99.98
2022-08-20T05:26:55.743Z,100.00
2022-08-20T05:29:28.349Z,100.00
2022-08-20T05:32:00.545Z,100.00
2022-08-20T05:34:33.342Z,100.00
2022-08-20T05:37:06.204Z,100.00
2022-08-20T05:39:40.418Z,100.00
2022-08-20T05:42:12.733Z,100.00
2022-08-20T05:44:47.047Z,100.00
2022-08-20T05:47:19.310Z,100.00
2022-08-20T05:49:54.392Z,100.00
2022-08-20T05:52:26.756Z,100.00
2022-08-20T05:54:59.181Z,100.00
2022-08-20T05:57:31.544Z,100.00
2022-08-20T06:00:06.880Z,100.00
2022-08-20T06:03:01.491Z,100.00
2022-08-20T06:05:34.565Z,100.00
2022-08-20T06:08:18.434Z,100.00
2022-08-20T06:10:50.767Z,100.00
2022-08-20T06:13:23.935Z,100.00
2022-08-20T06:15:57.595Z,100.00
2022-08-20T06:18:31.269Z,100.00
2022-08-20T06:21:03.448Z,100.00
2022-08-20T06:23:56.367Z,100.00
2022-08-20T06:26:33.878Z,100.00
2022-08-20T06:29:06.993Z,100.00
2022-08-20T06:31:40.127Z,100.00
2022-08-20T06:34:15.164Z,100.00
2022-08-20T06:36:47.804Z,100.00
2022-08-20T06:39:20.405Z,100.00
2022-08-20T06:41:58.891Z,100.00
2022-08-20T06:44:31.797Z,100.00
2022-08-20T06:47:05.802Z,100.00
2022-08-20T06:49:39.639Z,100.00
2022-08-20T06:52:12.113Z,100.00
2022-08-20T06:54:44.374Z,100.00
2022-08-20T06:57:17.362Z,100.00
2022-08-20T06:59:54.394Z,100.00
2022-08-20T07:02:30.162Z,100.00
2022-08-20T07:05:03.157Z,100.00
2022-08-20T07:07:37.273Z,100.00
2022-08-20T07:10:12.775Z,100.00
2022-08-20T07:12:46.998Z,100.00
2022-08-20T07:15:20.780Z,100.00
2022-08-20T07:18:00.262Z,100.00
2022-08-20T07:20:38.301Z,100.00
2022-08-20T07:23:11.342Z,100.00
2022-08-20T07:25:45.231Z,100.00
2022-08-20T07:28:20.686Z,100.00
2022-08-20T07:34:19.959Z,100.00
2022-08-20T07:36:52.358Z,100.00
2022-08-20T07:39:28.486Z,100.00
2022-08-20T07:42:07.285Z,100.00
2022-08-20T07:44:39.467Z,100.00
2022-08-20T07:47:11.716Z,100.00
2022-08-20T07:49:47.042Z,100.00
2022-08-20T07:52:19.264Z,100.00
2022-08-20T07:54:51.608Z,100.00
2022-08-20T07:57:23.916Z,100.00
2022-08-20T07:59:59.259Z,100.00
2022-08-20T08:02:35.249Z,100.00
2022-08-20T08:05:10.644Z,100.00
2022-08-20T08:07:43.318Z,100.00
2022-08-20T08:10:21.570Z,99.98
2022-08-20T08:12:58.943Z,99.06
2022-08-20T08:15:34.342Z,98.03
2022-08-20T08:18:22.534Z,98.98
2022-08-20T08:20:58.325Z,98.00
2022-08-20T08:23:31.967Z,97.08
2022-08-20T08:26:05.471Z,96.93
2022-08-20T08:28:37.706Z,95.97
2022-08-20T08:31:09.973Z,95.38
2022-08-20T08:33:42.525Z,93.89
2022-08-20T08:36:17.210Z,93.80
2022-08-20T08:38:49.590Z,94.59
2022-08-20T08:41:29.631Z,95.01
2022-08-20T08:44:08.357Z,94.73
2022-08-20T08:46:48.450Z,94.64
2022-08-20T08:49:24.661Z,94.21
2022-08-20T08:52:11.559Z,92.56
2022-08-20T08:54:48.909Z,91.51
2022-08-20T08:57:21.322Z,90.68
2022-08-20T09:00:05.020Z,89.62
2022-08-20T09:02:42.569Z,89.46
2022-08-20T09:08:54.345Z,89.40
2022-08-20T09:11:27.135Z,89.15
2022-08-20T09:13:59.740Z,88.74
2022-08-20T09:16:52.038Z,88.65
2022-08-20T09:19:24.541Z,88.41
2022-08-20T09:21:56.830Z,88.29
2022-08-20T09:24:29.115Z,88.31
2022-08-20T09:27:01.413Z,88.21
2022-08-20T09:29:37.097Z,88.82
2022-08-20T09:32:12.346Z,88.51
2022-08-20T09:34:52.027Z,88.64
2022-08-20T09:37:37.226Z,88.74
2022-08-20T09:40:12.307Z,89.13
2022-08-20T09:42:44.659Z,88.98
2022-08-20T09:45:18.065Z,89.27
2022-08-20T09:47:56.463Z,89.48
2022-08-20T09:50:31.909Z,89.44
2022-08-20T09:53:07.508Z,89.40
2022-08-20T09:55:42.561Z,89.39
2022-08-20T09:58:20.986Z,88.94
2022-08-20T10:00:53.806Z,89.19
2022-08-20T10:03:26.296Z,89.55
2022-08-20T10:05:59.895Z,89.10
2022-08-20T10:08:32.193Z,89.43
2022-08-20T10:11:04.517Z,89.30
2022-08-20T10:13:36.768Z,89.28
2022-08-20T10:16:09.487Z,89.21
2022-08-20T10:18:41.948Z,89.68
2022-08-20T10:21:14.673Z,90.04
2022-08-20T10:23:46.946Z,89.67
2022-08-20T10:26:19.373Z,89.69
2022-08-20T10:28:51.664Z,89.87
2022-08-20T10:31:50.892Z,89.87
2022-08-20T10:34:23.316Z,89.10
2022-08-20T10:36:59.063Z,89.54
2022-08-20T10:39:31.516Z,90.23
2022-08-20T10:42:04.630Z,90.71
2022-08-20T10:44:37.034Z,90.82
2022-08-20T10:47:23.159Z,90.85
2022-08-20T10:49:58.697Z,91.11
2022-08-20T10:52:33.761Z,91.42
2022-08-20T10:55:10.030Z,91.73
2022-08-20T10:57:44.640Z,91.67
2022-08-20T11:00:19.125Z,91.74
2022-08-20T11:02:52.035Z,91.83
2022-08-20T11:05:24.512Z,92.23
2022-08-20T11:07:57.811Z,91.39
2022-08-20T11:10:33.331Z,91.11
2022-08-20T11:13:07.489Z,90.42
2022-08-20T11:15:42.151Z,90.64
2022-08-20T11:18:15.412Z,90.63
2022-08-20T11:20:47.685Z,90.17
2022-08-20T11:23:20.335Z,89.40
2022-08-20T11:25:53.346Z,89.32
2022-08-20T11:28:31.308Z,89.52
2022-08-20T11:31:04.635Z,88.54
2022-08-20T11:33:37.093Z,87.65
2022-08-20T11:36:10.154Z,87.03
2022-08-20T11:38:43.287Z,86.93
2022-08-20T11:41:15.855Z,86.82
2022-08-20T11:44:10.495Z,86.17
2022-08-20T11:46:43.252Z,86.23
2022-08-20T11:49:15.741Z,85.48
2022-08-20T11:51:50.123Z,84.94
2022-08-20T11:54:23.199Z,84.74
2022-08-20T11:56:56.355Z,84.30
2022-08-20T11:59:29.143Z,84.06
2022-08-20T12:02:12.150Z,83.82
2022-08-20T12:04:45.570Z,83.58
2022-08-20T12:07:21.208Z,83.59
2022-08-20T12:09:54.321Z,83.45
2022-08-20T12:12:27.426Z,83.57
2022-08-20T12:14:59.638Z,83.37
2022-08-20T12:17:33.480Z,83.03
2022-08-20T12:20:12.364Z,83.47
2022-08-20T12:22:45.052Z,83.28
2022-08-20T12:25:17.760Z,83.33
2022-08-20T12:27:50.121Z,83.24
2022-08-20T12:30:25.388Z,83.88
2022-08-20T12:32:57.801Z,84.02
2022-08-20T12:35:31.665Z,84.63
2022-08-20T12:38:06.719Z,84.84
2022-08-20T12:40:39.533Z,84.42
2022-08-20T12:43:11.760Z,84.66
2022-08-20T12:45:44.201Z,84.94
2022-08-20T12:48:21.053Z,85.09
2022-08-20T12:50:53.861Z,85.40
2022-08-20T12:53:26.286Z,85.59
2022-08-20T12:55:58.676Z,85.75
2022-08-20T12:58:31.055Z,85.71
2022-08-20T13:01:03.693Z,86.43
2022-08-20T13:03:40.230Z,86.26
2022-08-20T13:06:17.679Z,86.42
2022-08-20T13:08:49.940Z,86.33
2022-08-20T13:11:24.639Z,86.70
2022-08-20T13:13:56.793Z,87.08
2022-08-20T13:16:29.359Z,87.56
2022-08-20T13:19:01.987Z,87.51
2022-08-20T13:21:34.282Z,87.50
2022-08-20T13:24:07.400Z,88.10
2022-08-20T13:26:40.088Z,88.20
2022-08-20T13:29:12.429Z,88.64
2022-08-20T13:31:45.447Z,88.33
2022-08-20T13:34:17.876Z,88.81
2022-08-20T13:36:50.144Z,88.72
2022-08-20T13:39:23.147Z,88.43
2022-08-20T13:41:55.687Z,88.61
2022-08-20T13:44:33.171Z,89.20
2022-08-20T13:47:19.431Z,88.95
2022-08-20T13:49:58.313Z,88.80
2022-08-20T13:52:30.816Z,89.02
2022-08-20T13:55:06.541Z,89.29
2022-08-20T14:01:52.389Z,90.26
2022-08-20T14:04:25.079Z,90.32
2022-08-20T14:06:57.312Z,90.43
2022-08-20T14:09:30.218Z,90.66
2022-08-20T14:12:02.785Z,90.57
2022-08-20T14:14:35.356Z,90.86
2022-08-20T14:17:19.084Z,91.10
2022-08-20T14:19:53.001Z,91.23
2022-08-20T14:22:25.961Z,90.49
2022-08-20T14:24:59.642Z,90.07
2022-08-20T14:27:33.428Z,90.44
2022-08-20T14:30:09.031Z,90.76
2022-08-20T14:32:41.164Z,90.39
2022-08-20T14:35:15.103Z,90.76
2022-08-20T14:37:52.043Z,90.98
2022-08-20T14:40:29.245Z,90.75
2022-08-20T14:43:02.241Z,90.35
2022-08-20T14:45:34.626Z,90.31
2022-08-20T14:48:10.165Z,90.27
2022-08-20T14:50:42.428Z,90.17
2022-08-20T14:53:15.872Z,88.95
2022-08-20T14:55:48.217Z,88.54
2022-08-20T14:58:21.666Z,87.86
2022-08-20T15:00:54.001Z,87.20
2022-08-20T15:03:30.466Z,87.06
2022-08-20T15:06:02.792Z,87.06
2022-08-20T15:08:35.280Z,86.40
2022-08-20T15:11:08.817Z,86.54
2022-08-20T15:13:41.110Z,86.04
2022-08-20T15:16:13.436Z,86.09
2022-08-20T15:18:45.665Z,86.39
2022-08-20T15:21:21.457Z,86.29
2022-08-20T15:23:54.077Z,86.47
2022-08-20T15:26:26.461Z,86.85
2022-08-20T15:28:58.648Z,86.97
2022-08-20T15:31:31.276Z,86.75
2022-08-20T15:34:03.572Z,86.68
2022-08-20T15:36:35.682Z,86.77
2022-08-20T15:39:07.963Z,87.12
2022-08-20T15:41:40.621Z,87.25
2022-08-20T15:44:14.081Z,86.98
2022-08-20T15:46:46.418Z,87.09
2022-08-20T15:49:18.630Z,87.27
2022-08-20T15:51:52.008Z,87.00
2022-08-20T15:54:29.702Z,87.28
2022-08-20T15:57:08.761Z,87.39
2022-08-20T16:00:03.329Z,87.39
2022-08-20T16:02:59.750Z,87.73
2022-08-20T16:05:43.529Z,88.11
2022-08-20T16:08:33.018Z,87.98
2022-08-20T16:11:13.665Z,87.93
2022-08-20T16:13:50.500Z,88.15
2022-08-20T16:37:47.528Z,89.06
2022-08-20T16:40:56.566Z,88.98
2022-08-20T16:43:36.538Z,89.18
2022-08-20T16:50:33.043Z,89.99
2022-08-20T16:53:05.955Z,90.26
2022-08-20T16:55:38.326Z,90.49
2022-08-20T16:58:12.013Z,90.78
2022-08-20T17:00:45.269Z,91.05
2022-08-20T17:03:31.646Z,91.00
2022-08-20T17:06:25.565Z,91.54
2022-08-20T17:08:58.604Z,91.78
2022-08-20T17:11:34.531Z,92.00
2022-08-20T17:14:13.640Z,91.99
2022-08-20T17:16:48.766Z,92.18
2022-08-20T17:19:29.492Z,92.34
2022-08-20T17:22:12.201Z,92.27
2022-08-20T17:24:44.378Z,92.46
2022-08-20T17:27:29.187Z,92.41
2022-08-20T17:30:20.135Z,92.88
2022-08-20T17:32:58.335Z,93.17
2022-08-20T17:35:34.607Z,93.42
2022-08-20T17:38:07.443Z,93.36
2022-08-20T17:40:46.017Z,93.38
2022-08-20T17:43:29.272Z,93.68
2022-08-20T17:46:11.241Z,93.80
2022-08-20T17:48:49.969Z,93.73
2022-08-20T17:51:24.497Z,93.94
2022-08-20T17:54:11.477Z,94.21
2022-08-20T17:56:46.783Z,94.15
2022-08-20T18:00:01.654Z,94.15
2022-08-20T18:02:19.834Z,94.55
2022-08-20T18:04:54.790Z,94.73
2022-08-20T18:07:32.401Z,94.92
2022-08-20T18:10:08.005Z,95.07
2022-08-20T18:12:46.536Z,94.96
2022-08-20T18:15:24.551Z,94.89
2022-08-20T18:18:17.315Z,95.07
2022-08-20T18:21:15.362Z,95.39
2022-08-20T18:23:52.437Z,95.55
2022-08-20T18:26:43.113Z,95.30
2022-08-20T18:29:18.287Z,95.57
2022-08-20T18:31:55.187Z,95.89
2022-08-20T18:34:39.648Z,96.06
2022-08-20T18:37:26.247Z,96.21
2022-08-20T18:40:17.621Z,96.44
2022-08-20T18:42:50.106Z,96.66
2022-08-20T18:45:42.286Z,96.56
2022-08-20T18:48:24.741Z,96.90
2022-08-20T18:50:59.312Z,97.12
2022-08-20T18:53:35.420Z,97.03
2022-08-20T18:56:10.811Z,97.37
2022-08-20T18:58:57.519Z,97.58
2022-08-20T19:01:32.710Z,97.74
2022-08-20T19:04:15.112Z,97.70
2022-08-20T19:06:56.856Z,98.13
2022-08-20T19:10:03.233Z,97.79
2022-08-20T19:13:20.823Z,97.94
2022-08-20T19:15:58.979Z,98.22
2022-08-20T19:18:40.944Z,98.37
2022-08-20T19:21:16.245Z,98.36
2022-08-20T19:23:53.513Z,98.57
2022-08-20T19:26:28.811Z,98.52
2022-08-20T19:29:08.335Z,98.58
2022-08-20T19:31:41.881Z,98.64
2022-08-20T19:34:21.885Z,98.96
2022-08-20T19:37:09.075Z,98.78
2022-08-20T19:39:55.703Z,99.00
2022-08-20T19:42:33.413Z,98.94
2022-08-20T19:45:10.396Z,99.30
2022-08-20T19:48:04.671Z,99.50
2022-08-20T19:50:54.997Z,99.54
2022-08-20T19:53:31.010Z,99.31
2022-08-20T19:56:05.657Z,99.38
2022-08-20T19:58:41.197Z,99.57
2022-08-20T20:01:21.260Z,99.83
2022-08-20T20:04:02.797Z,99.49
2022-08-20T20:06:42.762Z,99.67
2022-08-20T20:09:22.231Z,99.49
2022-08-20T20:12:03.260Z,99.66
2022-08-20T20:14:39.052Z,99.49
2022-08-20T20:17:14.787Z,99.68
2022-08-20T20:19:57.928Z,99.58
2022-08-20T20:22:33.396Z,99.50
2022-08-20T20:25:18.947Z,99.39
2022-08-20T20:27:57.963Z,99.38
2022-08-20T20:30:35.167Z,99.65
2022-08-20T20:33:16.475Z,99.71
2022-08-20T20:35:49.389Z,99.88
2022-08-20T20:38:30.224Z,99.97
2022-08-20T20:41:05.258Z,100.00
2022-08-20T20:43:39.644Z,99.97
2022-08-20T20:46:19.861Z,99.99
2022-08-20T20:48:55.083Z,99.95
2022-08-20T20:51:30.586Z,99.99
2022-08-20T20:54:07.454Z,99.95
2022-08-20T20:56:42.289Z,100.00
2022-08-20T20:59:14.605Z,100.00
2022-08-20T21:01:49.364Z,100.00
2022-08-20T21:04:25.295Z,100.00
2022-08-20T21:07:00.247Z,100.00
2022-08-20T21:09:35.212Z,100.00
2022-08-20T21:12:09.446Z,100.00
2022-08-20T21:14:44.508Z,100.00
2022-08-20T21:17:21.196Z,100.00
2022-08-20T21:19:54.465Z,100.00
2022-08-20T21:22:26.781Z,100.00
2022-08-20T21:24:59.066Z,100.00
2022-08-20T21:27:33.130Z,100.00
2022-08-20T21:30:08.851Z,100.00
2022-08-20T21:32:41.119Z,100.00
2022-08-20T21:35:13.688Z,100.00
2022-08-20T21:37:48.387Z,100.00
2022-08-20T21:40:21.806Z,100.00
2022-08-20T21:42:54.705Z,100.00
2022-08-20T21:45:28.525Z,100.00
2022-08-20T21:48:01.755Z,100.00
2022-08-20T21:50:35.702Z,100.00
2022-08-20T21:53:09.203Z,100.00
2022-08-20T21:55:45.143Z,100.00
2022-08-20T21:58:17.345Z,100.00
2022-08-20T22:00:59.464Z,100.00
2022-08-20T22:03:38.486Z,100.00
2022-08-20T22:06:14.528Z,100.00
2022-08-20T22:08:47.523Z,100.00
2022-08-20T22:11:19.720Z,100.00
2022-08-20T22:13:52.692Z,100.00
2022-08-20T22:16:25.287Z,100.00
2022-08-20T22:18:57.884Z,100.00
2022-08-20T22:21:31.933Z,100.00
2022-08-20T22:24:07.722Z,100.00
2022-08-20T22:26:41.947Z,100.00
2022-08-20T22:29:14.682Z,100.00
2022-08-20T22:31:47.160Z,100.00
2022-08-20T22:34:21.914Z,100.00
2022-08-20T22:36:58.196Z,100.00
2022-08-20T22:39:30.998Z,100.00
2022-08-20T22:42:03.290Z,100.00
2022-08-20T22:44:35.570Z,100.00
2022-08-20T22:47:10.293Z,100.00
2022-08-20T22:49:44.569Z,100.00
2022-08-20T22:52:16.861Z,100.00
2022-08-20T22:54:49.229Z,100.00
2022-08-20T22:57:21.758Z,100.00
2022-08-20T22:59:56.743Z,100.00
2022-08-20T23:02:30.672Z,100.00
2022-08-20T23:05:03.112Z,100.00
2022-08-20T23:07:36.361Z,100.00
2022-08-20T23:10:09.945Z,100.00
2022-08-20T23:12:42.341Z,100.00
2022-08-20T23:15:14.705Z,100.00
2022-08-20T23:17:47.931Z,100.00
2022-08-20T23:20:20.628Z,100.00
2022-08-20T23:22:54.749Z,100.00
2022-08-20T23:25:27.257Z,100.00
2022-08-20T23:28:03.968Z,100.00
2022-08-20T23:30:36.949Z,100.00
2022-08-20T23:33:09.214Z,100.00
2022-08-20T23:35:43.053Z,100.00
2022-08-20T23:38:15.482Z,100.00
2022-08-20T23:40:47.773Z,100.00
2022-08-20T23:43:20.206Z,100.00
2022-08-20T23:45:53.224Z,100.00
2022-08-20T23:48:26.503Z,100.00
2022-08-20T23:50:58.730Z,100.00
2022-08-20T23:53:31.149Z,100.00
2022-08-20T23:56:03.794Z,100.00
2022-08-20T23:58:37.126Z,100.00
